sensor_id;sensor_type;location;lat;lon;timestamp;pressure;altitude;pressure_sealevel;temperature;humidity
55301;BME280;58302;51.446;-2.000;2023-08-06T00:00:07;101389.75;;;10.36;100.00
55301;BME280;58302;51.446;-2.000;2023-08-06T00:02:34;101390.72;;;10.30;100.00
55301;BME280;58302;51.446;-2.000;2023-08-06T00:05:00;101404.53;;;10.28;100.00
55301;BME280;58302;51.446;-2.000;2023-08-06T00:07:26;101405.00;;;10.25;100.00
55301;BME280;58302;51.446;-2.000;2023-08-06T00:09:52;101409.97;;;10.28;100.00
55301;BME280;58302;51.446;-2.000;2023-08-06T00:12:19;101418.34;;;10.27;100.00
55301;BME280;58302;51.446;-2.000;2023-08-06T00:14:45;101425.19;;;10.18;100.00
55301;BME280;58302;51.446;-2.000;2023-08-06T00:17:11;101421.31;;;10.14;100.00
55301;BME280;58302;51.446;-2.000;2023-08-06T00:19:37;101430.97;;;10.10;100.00
55301;BME280;58302;51.446;-2.000;2023-08-06T00:22:03;101435.59;;;10.09;100.00
55301;BME280;58302;51.446;-2.000;2023-08-06T00:24:29;101444.69;;;10.03;100.00
55301;BME280;58302;51.446;-2.000;2023-08-06T00:26:55;101447.78;;;9.95;100.00
55301;BME280;58302;51.446;-2.000;2023-08-06T00:29:21;101452.84;;;9.91;100.00
55301;BME280;58302;51.446;-2.000;2023-08-06T00:31:47;101453.44;;;9.82;100.00
55301;BME280;58302;51.446;-2.000;2023-08-06T00:34:13;101475.16;;;9.82;100.00
55301;BME280;58302;51.446;-2.000;2023-08-06T00:36:39;101475.84;;;9.77;100.00
55301;BME280;58302;51.446;-2.000;2023-08-06T00:39:05;101485.88;;;9.76;100.00
55301;BME280;58302;51.446;-2.000;2023-08-06T00:41:32;101479.97;;;9.68;100.00
55301;BME280;58302;51.446;-2.000;2023-08-06T00:43:58;101490.00;;;9.67;100.00
55301;BME280;58302;51.446;-2.000;2023-08-06T00:46:25;101502.72;;;9.67;100.00
55301;BME280;58302;51.446;-2.000;2023-08-06T00:48:51;101506.38;;;9.61;100.00
55301;BME280;58302;51.446;-2.000;2023-08-06T00:51:17;101518.06;;;9.61;100.00
55301;BME280;58302;51.446;-2.000;2023-08-06T00:53:43;101520.19;;;9.59;100.00
55301;BME280;58302;51.446;-2.000;2023-08-06T00:56:09;101563.03;;;9.57;100.00
55301;BME280;58302;51.446;-2.000;2023-08-06T00:58:36;101567.13;;;9.48;100.00
55301;BME280;58302;51.446;-2.000;2023-08-06T01:01:02;101569.56;;;9.38;100.00
55301;BME280;58302;51.446;-2.000;2023-08-06T01:03:28;101580.06;;;9.34;100.00
55301;BME280;58302;51.446;-2.000;2023-08-06T01:05:54;101589.19;;;9.21;100.00
55301;BME280;58302;51.446;-2.000;2023-08-06T01:11:26;101616.75;;;9.00;100.00
55301;BME280;58302;51.446;-2.000;2023-08-06T01:14:28;101634.16;;;8.92;100.00
55301;BME280;58302;51.446;-2.000;2023-08-06T01:16:58;101635.72;;;8.82;100.00
55301;BME280;58302;51.446;-2.000;2023-08-06T01:19:24;102149.56;;;8.71;100.00
55301;BME280;58302;51.446;-2.000;2023-08-06T01:21:50;102160.41;;;8.64;100.00
55301;BME280;58302;51.446;-2.000;2023-08-06T01:24:16;102169.78;;;8.55;100.00
55301;BME280;58302;51.446;-2.000;2023-08-06T01:26:45;102183.56;;;8.47;100.00
55301;BME280;58302;51.446;-2.000;2023-08-06T01:32:03;102254.22;;;8.72;100.00
55301;BME280;58302;51.446;-2.000;2023-08-06T01:34:31;102266.50;;;8.68;100.00
55301;BME280;58302;51.446;-2.000;2023-08-06T01:36:59;102275.69;;;8.60;100.00
55301;BME280;58302;51.446;-2.000;2023-08-06T01:39:26;102305.09;;;8.63;100.00
55301;BME280;58302;51.446;-2.000;2023-08-06T01:41:52;102336.16;;;8.61;100.00
55301;BME280;58302;51.446;-2.000;2023-08-06T01:44:18;102359.09;;;8.71;100.00
55301;BME280;58302;51.446;-2.000;2023-08-06T01:46:52;102380.34;;;8.61;100.00
55301;BME280;58302;51.446;-2.000;2023-08-06T01:49:18;102401.19;;;8.54;100.00
55301;BME280;58302;51.446;-2.000;2023-08-06T01:51:44;102408.03;;;8.50;100.00
55301;BME280;58302;51.446;-2.000;2023-08-06T01:54:10;102422.00;;;8.47;100.00
55301;BME280;58302;51.446;-2.000;2023-08-06T01:56:36;102456.34;;;8.40;100.00
55301;BME280;58302;51.446;-2.000;2023-08-06T01:59:02;102474.69;;;8.38;100.00
55301;BME280;58302;51.446;-2.000;2023-08-06T02:01:27;102481.50;;;8.34;100.00
55301;BME280;58302;51.446;-2.000;2023-08-06T02:03:53;102502.09;;;8.28;100.00
55301;BME280;58302;51.446;-2.000;2023-08-06T02:06:20;102511.88;;;8.23;100.00
55301;BME280;58302;51.446;-2.000;2023-08-06T02:08:46;102517.84;;;8.11;100.00
55301;BME280;58302;51.446;-2.000;2023-08-06T02:11:12;102634.50;;;8.10;100.00
55301;BME280;58302;51.446;-2.000;2023-08-06T02:13:38;102685.47;;;8.06;100.00
55301;BME280;58302;51.446;-2.000;2023-08-06T02:16:07;102703.59;;;8.06;100.00
55301;BME280;58302;51.446;-2.000;2023-08-06T02:18:34;102726.44;;;7.97;100.00
55301;BME280;58302;51.446;-2.000;2023-08-06T02:21:00;102720.22;;;7.81;100.00
55301;BME280;58302;51.446;-2.000;2023-08-06T02:23:27;102733.19;;;7.86;100.00
55301;BME280;58302;51.446;-2.000;2023-08-06T02:26:03;102752.84;;;7.95;100.00
55301;BME280;58302;51.446;-2.000;2023-08-06T02:28:30;102748.97;;;7.82;100.00
55301;BME280;58302;51.446;-2.000;2023-08-06T02:30:57;102752.53;;;7.68;100.00
55301;BME280;58302;51.446;-2.000;2023-08-06T02:33:23;102761.81;;;7.59;100.00
55301;BME280;58302;51.446;-2.000;2023-08-06T02:35:49;102779.16;;;7.64;100.00
55301;BME280;58302;51.446;-2.000;2023-08-06T02:38:18;102779.88;;;7.73;100.00
55301;BME280;58302;51.446;-2.000;2023-08-06T02:40:47;102789.66;;;7.89;100.00
55301;BME280;58302;51.446;-2.000;2023-08-06T02:43:15;102816.97;;;8.09;100.00
55301;BME280;58302;51.446;-2.000;2023-08-06T02:45:41;102850.38;;;8.16;100.00
55301;BME280;58302;51.446;-2.000;2023-08-06T02:48:07;102863.09;;;8.15;100.00
55301;BME280;58302;51.446;-2.000;2023-08-06T02:50:40;102885.41;;;8.17;100.00
55301;BME280;58302;51.446;-2.000;2023-08-06T02:53:07;102900.19;;;8.15;100.00
55301;BME280;58302;51.446;-2.000;2023-08-06T02:55:34;102931.63;;;8.16;100.00
55301;BME280;58302;51.446;-2.000;2023-08-06T02:58:01;102955.53;;;8.12;100.00
55301;BME280;58302;51.446;-2.000;2023-08-06T03:00:27;102989.75;;;8.13;100.00
55301;BME280;58302;51.446;-2.000;2023-08-06T03:02:56;103007.84;;;8.13;100.00
55301;BME280;58302;51.446;-2.000;2023-08-06T03:05:22;103038.88;;;8.25;100.00
55301;BME280;58302;51.446;-2.000;2023-08-06T03:07:48;103059.63;;;8.33;100.00
55301;BME280;58302;51.446;-2.000;2023-08-06T03:10:14;103099.19;;;8.42;100.00
55301;BME280;58302;51.446;-2.000;2023-08-06T03:12:40;103129.00;;;8.42;100.00
55301;BME280;58302;51.446;-2.000;2023-08-06T03:15:06;103154.03;;;8.44;100.00
55301;BME280;58302;51.446;-2.000;2023-08-06T03:17:33;103182.66;;;8.47;100.00
55301;BME280;58302;51.446;-2.000;2023-08-06T03:19:59;103190.50;;;8.41;100.00
55301;BME280;58302;51.446;-2.000;2023-08-06T03:22:25;103206.75;;;8.41;100.00
55301;BME280;58302;51.446;-2.000;2023-08-06T03:24:51;103215.56;;;8.35;100.00
55301;BME280;58302;51.446;-2.000;2023-08-06T03:27:17;103212.72;;;8.29;100.00
55301;BME280;58302;51.446;-2.000;2023-08-06T03:29:43;103206.31;;;8.30;100.00
55301;BME280;58302;51.446;-2.000;2023-08-06T03:32:09;103209.16;;;8.36;100.00
55301;BME280;58302;51.446;-2.000;2023-08-06T03:34:35;103219.47;;;8.41;100.00
55301;BME280;58302;51.446;-2.000;2023-08-06T03:37:02;103218.59;;;8.40;100.00
55301;BME280;58302;51.446;-2.000;2023-08-06T03:39:29;103225.22;;;8.38;100.00
55301;BME280;58302;51.446;-2.000;2023-08-06T03:41:55;103222.31;;;8.39;100.00
55301;BME280;58302;51.446;-2.000;2023-08-06T03:44:22;103226.78;;;8.32;100.00
55301;BME280;58302;51.446;-2.000;2023-08-06T03:46:48;103227.50;;;8.26;100.00
55301;BME280;58302;51.446;-2.000;2023-08-06T03:49:14;103233.22;;;8.31;100.00
55301;BME280;58302;51.446;-2.000;2023-08-06T03:51:41;103232.19;;;8.32;100.00
55301;BME280;58302;51.446;-2.000;2023-08-06T03:54:07;103226.66;;;8.26;100.00
55301;BME280;58302;51.446;-2.000;2023-08-06T03:56:33;103214.25;;;8.08;100.00
55301;BME280;58302;51.446;-2.000;2023-08-06T03:59:02;103217.69;;;8.02;100.00
55301;BME280;58302;51.446;-2.000;2023-08-06T04:01:28;103214.38;;;7.92;100.00
55301;BME280;58302;51.446;-2.000;2023-08-06T04:03:54;103227.50;;;8.03;100.00
55301;BME280;58302;51.446;-2.000;2023-08-06T04:06:20;103215.69;;;7.96;100.00
55301;BME280;58302;51.446;-2.000;2023-08-06T04:08:46;103225.16;;;8.00;100.00
55301;BME280;58302;51.446;-2.000;2023-08-06T04:11:13;103225.88;;;7.94;100.00
55301;BME280;58302;51.446;-2.000;2023-08-06T04:13:42;103224.91;;;7.87;100.00
55301;BME280;58302;51.446;-2.000;2023-08-06T04:16:08;103223.38;;;7.84;100.00
55301;BME280;58302;51.446;-2.000;2023-08-06T04:18:35;103241.78;;;7.97;100.00
55301;BME280;58302;51.446;-2.000;2023-08-06T04:21:01;103257.28;;;8.03;100.00
55301;BME280;58302;51.446;-2.000;2023-08-06T04:23:28;103264.75;;;8.01;100.00
55301;BME280;58302;51.446;-2.000;2023-08-06T04:25:57;103276.41;;;8.02;100.00
55301;BME280;58302;51.446;-2.000;2023-08-06T04:28:24;103277.31;;;7.94;100.00
55301;BME280;58302;51.446;-2.000;2023-08-06T04:30:50;103288.81;;;7.96;100.00
55301;BME280;58302;51.446;-2.000;2023-08-06T04:33:16;103276.22;;;7.80;100.00
55301;BME280;58302;51.446;-2.000;2023-08-06T04:35:43;103290.59;;;7.81;100.00
55301;BME280;58302;51.446;-2.000;2023-08-06T04:38:11;103290.75;;;7.79;100.00
55301;BME280;58302;51.446;-2.000;2023-08-06T04:40:38;103309.38;;;7.82;100.00
55301;BME280;58302;51.446;-2.000;2023-08-06T04:43:04;103313.25;;;7.80;100.00
55301;BME280;58302;51.446;-2.000;2023-08-06T04:45:33;103297.09;;;7.63;100.00
55301;BME280;58302;51.446;-2.000;2023-08-06T04:48:02;103300.16;;;7.60;100.00
55301;BME280;58302;51.446;-2.000;2023-08-06T04:50:36;103310.94;;;7.69;100.00
55301;BME280;58302;51.446;-2.000;2023-08-06T04:53:02;103310.28;;;7.66;100.00
55301;BME280;58302;51.446;-2.000;2023-08-06T04:55:28;103303.88;;;7.59;100.00
55301;BME280;58302;51.446;-2.000;2023-08-06T04:57:56;103305.91;;;7.57;100.00
55301;BME280;58302;51.446;-2.000;2023-08-06T05:00:22;103293.44;;;7.48;100.00
55301;BME280;58302;51.446;-2.000;2023-08-06T05:02:49;103307.69;;;7.42;100.00
55301;BME280;58302;51.446;-2.000;2023-08-06T05:05:31;103305.34;;;7.31;100.00
55301;BME280;58302;51.446;-2.000;2023-08-06T05:07:59;103293.53;;;7.16;100.00
55301;BME280;58302;51.446;-2.000;2023-08-06T05:10:26;103291.69;;;7.08;100.00
55301;BME280;58302;51.446;-2.000;2023-08-06T05:12:54;103290.31;;;7.12;100.00
55301;BME280;58302;51.446;-2.000;2023-08-06T05:15:21;103297.09;;;7.16;100.00
55301;BME280;58302;51.446;-2.000;2023-08-06T05:17:49;103308.56;;;7.18;100.00
55301;BME280;58302;51.446;-2.000;2023-08-06T05:20:15;103352.88;;;7.25;100.00
55301;BME280;58302;51.446;-2.000;2023-08-06T05:22:43;103398.50;;;7.36;100.00
55301;BME280;58302;51.446;-2.000;2023-08-06T05:25:09;103437.16;;;7.70;100.00
55301;BME280;58302;51.446;-2.000;2023-08-06T05:27:35;103461.78;;;7.91;100.00
55301;BME280;58302;51.446;-2.000;2023-08-06T05:30:03;103493.06;;;8.10;100.00
55301;BME280;58302;51.446;-2.000;2023-08-06T05:32:29;103526.56;;;8.17;100.00
55301;BME280;58302;51.446;-2.000;2023-08-06T05:34:55;103557.03;;;8.27;100.00
55301;BME280;58302;51.446;-2.000;2023-08-06T05:37:27;103606.78;;;8.34;100.00
55301;BME280;58302;51.446;-2.000;2023-08-06T05:39:55;103611.38;;;8.42;100.00
55301;BME280;58302;51.446;-2.000;2023-08-06T05:42:22;103623.72;;;8.53;100.00
55301;BME280;58302;51.446;-2.000;2023-08-06T05:44:49;103635.22;;;8.63;100.00
55301;BME280;58302;51.446;-2.000;2023-08-06T05:47:15;103642.47;;;8.70;100.00
55301;BME280;58302;51.446;-2.000;2023-08-06T05:49:42;103652.28;;;8.80;100.00
55301;BME280;58302;51.446;-2.000;2023-08-06T05:52:09;103664.97;;;8.87;100.00
55301;BME280;58302;51.446;-2.000;2023-08-06T05:54:35;103672.91;;;8.89;100.00
55301;BME280;58302;51.446;-2.000;2023-08-06T05:57:01;103683.78;;;8.89;100.00
55301;BME280;58302;51.446;-2.000;2023-08-06T05:59:27;103697.31;;;8.97;100.00
55301;BME280;58302;51.446;-2.000;2023-08-06T06:01:58;103711.88;;;9.04;100.00
55301;BME280;58302;51.446;-2.000;2023-08-06T06:04:25;103732.22;;;9.08;100.00
55301;BME280;58302;51.446;-2.000;2023-08-06T06:06:51;103731.13;;;9.17;100.00
55301;BME280;58302;51.446;-2.000;2023-08-06T06:09:21;103748.06;;;9.36;100.00
55301;BME280;58302;51.446;-2.000;2023-08-06T06:11:47;103756.84;;;9.46;100.00
55301;BME280;58302;51.446;-2.000;2023-08-06T06:14:17;103792.00;;;9.70;100.00
55301;BME280;58302;51.446;-2.000;2023-08-06T06:16:45;103797.34;;;9.87;100.00
55301;BME280;58302;51.446;-2.000;2023-08-06T06:19:15;103825.97;;;10.06;100.00
55301;BME280;58302;51.446;-2.000;2023-08-06T06:21:42;103820.69;;;10.04;100.00
55301;BME280;58302;51.446;-2.000;2023-08-06T06:24:13;103829.69;;;10.04;100.00
55301;BME280;58302;51.446;-2.000;2023-08-06T06:26:41;103833.56;;;10.10;100.00
55301;BME280;58302;51.446;-2.000;2023-08-06T06:29:10;103843.72;;;10.16;100.00
55301;BME280;58302;51.446;-2.000;2023-08-06T06:31:40;103856.38;;;10.32;100.00
55301;BME280;58302;51.446;-2.000;2023-08-06T06:34:27;103855.66;;;10.38;100.00
55301;BME280;58302;51.446;-2.000;2023-08-06T06:36:53;103857.53;;;10.38;100.00
55301;BME280;58302;51.446;-2.000;2023-08-06T06:39:23;103854.25;;;10.50;100.00
55301;BME280;58302;51.446;-2.000;2023-08-06T06:41:49;103845.28;;;10.65;100.00
55301;BME280;58302;51.446;-2.000;2023-08-06T06:44:15;103830.09;;;10.70;100.00
55301;BME280;58302;51.446;-2.000;2023-08-06T06:46:47;103833.53;;;10.87;100.00
55301;BME280;58302;51.446;-2.000;2023-08-06T06:49:19;103834.63;;;11.16;100.00
55301;BME280;58302;51.446;-2.000;2023-08-06T06:51:46;103878.59;;;11.86;100.00
55301;BME280;58302;51.446;-2.000;2023-08-06T06:54:12;103934.84;;;12.75;100.00
55301;BME280;58302;51.446;-2.000;2023-08-06T06:56:39;103989.94;;;13.49;100.00
55301;BME280;58302;51.446;-2.000;2023-08-06T06:59:05;103995.25;;;14.20;100.00
55301;BME280;58302;51.446;-2.000;2023-08-06T07:01:31;103976.34;;;14.86;100.00
55301;BME280;58302;51.446;-2.000;2023-08-06T07:03:57;103922.63;;;15.38;100.00
55301;BME280;58302;51.446;-2.000;2023-08-06T07:06:24;103706.88;;;15.07;100.00
55301;BME280;58302;51.446;-2.000;2023-08-06T07:08:50;103341.78;;;14.37;100.00
55301;BME280;58302;51.446;-2.000;2023-08-06T07:11:22;103043.59;;;14.12;100.00
55301;BME280;58302;51.446;-2.000;2023-08-06T07:13:58;101965.16;;;13.74;100.00
55301;BME280;58302;51.446;-2.000;2023-08-06T07:16:25;101843.44;;;13.66;100.00
55301;BME280;58302;51.446;-2.000;2023-08-06T07:21:47;101644.66;;;13.52;100.00
55301;BME280;58302;51.446;-2.000;2023-08-06T07:24:13;101593.84;;;13.51;100.00
55301;BME280;58302;51.446;-2.000;2023-08-06T07:26:39;101546.97;;;13.59;100.00
55301;BME280;58302;51.446;-2.000;2023-08-06T07:29:05;101495.31;;;13.57;100.00
55301;BME280;58302;51.446;-2.000;2023-08-06T07:31:31;101452.72;;;13.61;100.00
55301;BME280;58302;51.446;-2.000;2023-08-06T07:33:57;101442.16;;;13.70;100.00
55301;BME280;58302;51.446;-2.000;2023-08-06T07:36:23;101418.47;;;13.81;100.00
55301;BME280;58302;51.446;-2.000;2023-08-06T07:38:49;101411.06;;;14.23;100.00
55301;BME280;58302;51.446;-2.000;2023-08-06T07:41:22;101351.88;;;14.65;100.00
55301;BME280;58302;51.446;-2.000;2023-08-06T07:43:48;101302.66;;;14.90;100.00
55301;BME280;58302;51.446;-2.000;2023-08-06T07:46:15;101246.53;;;15.03;100.00
55301;BME280;58302;51.446;-2.000;2023-08-06T07:48:41;101212.03;;;15.17;100.00
55301;BME280;58302;51.446;-2.000;2023-08-06T07:51:06;101184.34;;;15.29;100.00
55301;BME280;58302;51.446;-2.000;2023-08-06T07:53:32;101169.19;;;15.52;100.00
55301;BME280;58302;51.446;-2.000;2023-08-06T07:55:59;101110.50;;;15.68;100.00
55301;BME280;58302;51.446;-2.000;2023-08-06T07:58:27;101093.53;;;15.66;100.00
55301;BME280;58302;51.446;-2.000;2023-08-06T08:00:55;101080.84;;;15.21;100.00
55301;BME280;58302;51.446;-2.000;2023-08-06T08:03:21;101119.50;;;15.09;100.00
55301;BME280;58302;51.446;-2.000;2023-08-06T08:05:47;101130.72;;;15.08;100.00
55301;BME280;58302;51.446;-2.000;2023-08-06T08:08:13;101147.31;;;15.37;100.00
55301;BME280;58302;51.446;-2.000;2023-08-06T08:10:39;101106.00;;;16.22;100.00
55301;BME280;58302;51.446;-2.000;2023-08-06T08:13:05;101008.03;;;17.42;100.00
55301;BME280;58302;51.446;-2.000;2023-08-06T08:15:32;100811.03;;;17.70;100.00
55301;BME280;58302;51.446;-2.000;2023-08-06T08:17:58;100780.06;;;17.37;100.00
55301;BME280;58302;51.446;-2.000;2023-08-06T08:20:24;100836.25;;;16.74;100.00
55301;BME280;58302;51.446;-2.000;2023-08-06T08:22:50;100842.38;;;16.04;100.00
55301;BME280;58302;51.446;-2.000;2023-08-06T08:25:16;100885.25;;;15.95;100.00
55301;BME280;58302;51.446;-2.000;2023-08-06T08:27:42;100913.66;;;15.75;100.00
55301;BME280;58302;51.446;-2.000;2023-08-06T08:30:08;100963.38;;;15.64;100.00
55301;BME280;58302;51.446;-2.000;2023-08-06T08:32:34;100941.56;;;16.12;100.00
55301;BME280;58302;51.446;-2.000;2023-08-06T08:35:01;100878.09;;;17.23;100.00
55301;BME280;58302;51.446;-2.000;2023-08-06T08:37:26;100779.03;;;18.65;100.00
55301;BME280;58302;51.446;-2.000;2023-08-06T08:39:52;100669.53;;;18.17;100.00
55301;BME280;58302;51.446;-2.000;2023-08-06T08:42:19;100738.41;;;17.16;100.00
55301;BME280;58302;51.446;-2.000;2023-08-06T08:44:45;100804.28;;;16.46;100.00
55301;BME280;58302;51.446;-2.000;2023-08-06T08:47:12;100846.66;;;16.77;100.00
55301;BME280;58302;51.446;-2.000;2023-08-06T08:49:38;100839.63;;;17.55;100.00
55301;BME280;58302;51.446;-2.000;2023-08-06T08:52:07;100773.13;;;18.36;100.00
55301;BME280;58302;51.446;-2.000;2023-08-06T08:54:38;100733.03;;;18.80;100.00
55301;BME280;58302;51.446;-2.000;2023-08-06T08:57:04;100609.81;;;18.18;100.00
55301;BME280;58302;51.446;-2.000;2023-08-06T08:59:33;100584.44;;;18.21;100.00
55301;BME280;58302;51.446;-2.000;2023-08-06T09:02:00;100563.50;;;18.65;100.00
55301;BME280;58302;51.446;-2.000;2023-08-06T09:04:29;101574.28;;;18.87;100.00
55301;BME280;58302;51.446;-2.000;2023-08-06T09:06:58;101591.34;;;19.13;100.00
55301;BME280;58302;51.446;-2.000;2023-08-06T09:09:31;101730.72;;;18.56;100.00
55301;BME280;58302;51.446;-2.000;2023-08-06T09:12:00;101781.06;;;18.62;100.00
55301;BME280;58302;51.446;-2.000;2023-08-06T09:14:46;101811.94;;;18.98;100.00
55301;BME280;58302;51.446;-2.000;2023-08-06T09:17:17;101867.50;;;19.73;100.00
55301;BME280;58302;51.446;-2.000;2023-08-06T09:19:46;101889.81;;;19.43;100.00
55301;BME280;58302;51.446;-2.000;2023-08-06T09:22:14;101889.13;;;19.27;100.00
55301;BME280;58302;51.446;-2.000;2023-08-06T09:24:41;101886.41;;;19.22;100.00
55301;BME280;58302;51.446;-2.000;2023-08-06T09:27:14;101895.59;;;19.46;100.00
55301;BME280;58302;51.446;-2.000;2023-08-06T09:29:46;101880.59;;;19.58;100.00
55301;BME280;58302;51.446;-2.000;2023-08-06T09:32:13;101851.00;;;18.61;100.00
55301;BME280;58302;51.446;-2.000;2023-08-06T09:34:42;102072.22;;;18.05;100.00
55301;BME280;58302;51.446;-2.000;2023-08-06T09:37:09;102092.88;;;17.98;100.00
55301;BME280;58302;51.446;-2.000;2023-08-06T09:39:39;102108.97;;;19.01;100.00
55301;BME280;58302;51.446;-2.000;2023-08-06T09:42:08;102130.88;;;19.27;100.00
55301;BME280;58302;51.446;-2.000;2023-08-06T09:44:34;102047.34;;;18.61;100.00
55301;BME280;58302;51.446;-2.000;2023-08-06T09:47:02;102175.41;;;18.54;100.00
55301;BME280;58302;51.446;-2.000;2023-08-06T09:52:01;102176.25;;;18.54;100.00
55301;BME280;58302;51.446;-2.000;2023-08-06T09:54:28;102160.81;;;18.79;100.00
55301;BME280;58302;51.446;-2.000;2023-08-06T09:56:56;102100.94;;;19.05;100.00
55301;BME280;58302;51.446;-2.000;2023-08-06T09:59:23;102049.22;;;18.91;100.00
55301;BME280;58302;51.446;-2.000;2023-08-06T10:01:50;102025.88;;;18.68;100.00
55301;BME280;58302;51.446;-2.000;2023-08-06T10:04:16;102026.72;;;18.54;100.00
55301;BME280;58302;51.446;-2.000;2023-08-06T10:06:46;102014.94;;;18.38;100.00
55301;BME280;58302;51.446;-2.000;2023-08-06T10:09:14;102014.72;;;18.14;100.00
55301;BME280;58302;51.446;-2.000;2023-08-06T10:11:44;102115.41;;;17.89;100.00
55301;BME280;58302;51.446;-2.000;2023-08-06T10:14:17;102230.47;;;17.45;100.00
55301;BME280;58302;51.446;-2.000;2023-08-06T10:16:47;102267.38;;;18.48;100.00
55301;BME280;58302;51.446;-2.000;2023-08-06T10:19:15;102199.03;;;19.81;100.00
55301;BME280;58302;51.446;-2.000;2023-08-06T10:22:12;102022.25;;;20.30;100.00
55301;BME280;58302;51.446;-2.000;2023-08-06T10:24:53;101877.13;;;20.67;100.00
55301;BME280;58302;51.446;-2.000;2023-08-06T10:27:53;101833.22;;;21.17;100.00
55301;BME280;58302;51.446;-2.000;2023-08-06T10:30:24;101806.28;;;21.22;100.00
55301;BME280;58302;51.446;-2.000;2023-08-06T10:32:52;101835.22;;;20.60;100.00
55301;BME280;58302;51.446;-2.000;2023-08-06T10:38:11;101931.56;;;20.18;100.00
55301;BME280;58302;51.446;-2.000;2023-08-06T10:40:40;101993.81;;;19.37;100.00
55301;BME280;58302;51.446;-2.000;2023-08-06T10:43:07;102219.13;;;19.16;100.00
55301;BME280;58302;51.446;-2.000;2023-08-06T10:49:15;102170.03;;;21.10;100.00
55301;BME280;58302;51.446;-2.000;2023-08-06T10:51:44;102026.97;;;21.58;100.00
55301;BME280;58302;51.446;-2.000;2023-08-06T10:54:31;101935.19;;;21.70;100.00
55301;BME280;58302;51.446;-2.000;2023-08-06T10:56:59;101921.56;;;20.89;100.00
55301;BME280;58302;51.446;-2.000;2023-08-06T10:59:28;101992.41;;;20.08;100.00
55301;BME280;58302;51.446;-2.000;2023-08-06T11:02:03;102168.97;;;19.19;100.00
55301;BME280;58302;51.446;-2.000;2023-08-06T11:04:32;102294.63;;;19.36;100.00
55301;BME280;58302;51.446;-2.000;2023-08-06T11:06:59;102326.59;;;19.37;100.00
55301;BME280;58302;51.446;-2.000;2023-08-06T11:09:26;102297.09;;;19.37;100.00
55301;BME280;58302;51.446;-2.000;2023-08-06T11:12:11;102278.59;;;20.62;100.00
55301;BME280;58302;51.446;-2.000;2023-08-06T11:14:37;102206.19;;;21.66;100.00
55301;BME280;58302;51.446;-2.000;2023-08-06T11:17:05;102059.66;;;22.54;100.00
55301;BME280;58302;51.446;-2.000;2023-08-06T11:19:31;101900.81;;;22.95;100.00
55301;BME280;58302;51.446;-2.000;2023-08-06T11:22:05;101769.81;;;23.20;100.00
55301;BME280;58302;51.446;-2.000;2023-08-06T11:24:33;101588.97;;;23.66;100.00
55301;BME280;58302;51.446;-2.000;2023-08-06T11:26:59;101584.97;;;23.33;100.00
55301;BME280;58302;51.446;-2.000;2023-08-06T11:29:25;101433.84;;;23.65;100.00
55301;BME280;58302;51.446;-2.000;2023-08-06T11:31:52;101447.88;;;22.91;100.00
55301;BME280;58302;51.446;-2.000;2023-08-06T11:34:28;101709.75;;;22.17;100.00
55301;BME280;58302;51.446;-2.000;2023-08-06T11:36:54;101925.38;;;21.26;100.00
55301;BME280;58302;51.446;-2.000;2023-08-06T11:39:23;102182.28;;;20.50;100.00
55301;BME280;58302;51.446;-2.000;2023-08-06T11:41:54;102527.88;;;19.21;100.00
55301;BME280;58302;51.446;-2.000;2023-08-06T11:47:55;101972.56;;;16.96;100.00
55301;BME280;58302;51.446;-2.000;2023-08-06T11:50:49;101779.16;;;16.56;100.00
55301;BME280;58302;51.446;-2.000;2023-08-06T11:53:19;101760.75;;;16.47;100.00
55301;BME280;58302;51.446;-2.000;2023-08-06T11:55:46;101742.66;;;16.46;100.00
55301;BME280;58302;51.446;-2.000;2023-08-06T11:58:16;101733.06;;;16.48;100.00
55301;BME280;58302;51.446;-2.000;2023-08-06T12:00:47;101728.13;;;16.50;100.00
55301;BME280;58302;51.446;-2.000;2023-08-06T12:03:30;101711.41;;;16.77;100.00
55301;BME280;58302;51.446;-2.000;2023-08-06T12:06:06;101727.88;;;17.88;100.00
55301;BME280;58302;51.446;-2.000;2023-08-06T12:08:38;101712.03;;;18.87;100.00
55301;BME280;58302;51.446;-2.000;2023-08-06T12:11:14;101702.72;;;19.55;100.00
55301;BME280;58302;51.446;-2.000;2023-08-06T12:14:39;101723.16;;;20.53;100.00
55301;BME280;58302;51.446;-2.000;2023-08-06T12:26:36;101939.72;;;22.90;100.00
55301;BME280;58302;51.446;-2.000;2023-08-06T12:29:02;101794.03;;;22.25;100.00
55301;BME280;58302;51.446;-2.000;2023-08-06T12:31:28;101742.72;;;21.77;100.00
55301;BME280;58302;51.446;-2.000;2023-08-06T12:33:54;101737.56;;;21.16;100.00
55301;BME280;58302;51.446;-2.000;2023-08-06T12:36:20;101780.91;;;20.88;100.00
55301;BME280;58302;51.446;-2.000;2023-08-06T12:38:46;101903.81;;;20.52;100.00
55301;BME280;58302;51.446;-2.000;2023-08-06T12:41:12;101995.59;;;19.57;100.00
55301;BME280;58302;51.446;-2.000;2023-08-06T12:43:38;101990.16;;;18.43;100.00
55301;BME280;58302;51.446;-2.000;2023-08-06T12:46:04;101920.91;;;16.88;100.00
55301;BME280;58302;51.446;-2.000;2023-08-06T12:48:30;101790.75;;;15.80;100.00
55301;BME280;58302;51.446;-2.000;2023-08-06T12:50:56;101731.06;;;15.40;100.00
55301;BME280;58302;51.446;-2.000;2023-08-06T12:53:22;101734.31;;;15.37;100.00
55301;BME280;58302;51.446;-2.000;2023-08-06T12:55:49;101732.22;;;15.54;100.00
55301;BME280;58302;51.446;-2.000;2023-08-06T12:58:14;101729.06;;;15.78;100.00
55301;BME280;58302;51.446;-2.000;2023-08-06T13:00:40;101733.88;;;16.39;100.00
55301;BME280;58302;51.446;-2.000;2023-08-06T13:03:06;101736.56;;;17.35;100.00
55301;BME280;58302;51.446;-2.000;2023-08-06T13:05:32;101719.56;;;17.98;100.00
55301;BME280;58302;51.446;-2.000;2023-08-06T13:07:58;101716.91;;;18.95;100.00
55301;BME280;58302;51.446;-2.000;2023-08-06T13:10:24;101709.34;;;19.54;100.00